Time;durP1;ratioP1;P1;durP2;ratioP2;P2;SDS_P1;SDS_P2;PMS_P1;PMS_P2;Temp;Humidity;BMP_temperature;BMP_pressure;BME280_temperature;BME280_humidity;BME280_pressure;Samples;Min_cycle;Max_cycle;Signal;HPM_P1;HPM_P2
2023/09/17 00:00:45;;;;;;;13.20;11.80;;;19.30;99.90;;;;;;4983806;28;20207;-87
2023/09/17 00:03:11;;;;;;;13.93;12.32;;;19.30;99.90;;;;;;4980409;28;20181;-85
2023/09/17 00:05:37;;;;;;;15.07;10.95;;;19.30;99.90;;;;;;4979081;28;20216;-85
2023/09/17 00:08:06;;;;;;;16.63;12.05;;;19.30;99.90;;;;;;4979033;28;20182;-85
2023/09/17 00:10:31;;;;;;;14.60;11.13;;;19.30;99.90;;;;;;4978526;28;20672;-85
2023/09/17 00:12:57;;;;;;;15.90;11.27;;;19.30;99.90;;;;;;4978072;28;20216;-85
2023/09/17 00:15:26;;;;;;;12.95;10.55;;;19.30;99.90;;;;;;4978241;28;20203;-87
2023/09/17 00:17:52;;;;;;;14.13;11.48;;;19.30;99.90;;;;;;4978797;28;20181;-85
2023/09/17 00:20:18;;;;;;;13.82;10.93;;;19.30;99.90;;;;;;4978357;28;20205;-86
2023/09/17 00:22:44;;;;;;;15.93;11.93;;;19.30;99.90;;;;;;4995624;28;20180;-86
2023/09/17 00:25:12;;;;;;;14.27;11.55;;;19.30;99.90;;;;;;4977992;28;20214;-85
2023/09/17 00:27:39;;;;;;;14.23;11.05;;;19.20;99.90;;;;;;4979769;28;20180;-86
2023/09/17 00:30:08;;;;;;;15.95;12.30;;;19.20;99.90;;;;;;4978240;28;20196;-85
2023/09/17 00:32:34;;;;;;;16.95;11.95;;;19.20;99.90;;;;;;4977655;28;20547;-86
2023/09/17 00:34:59;;;;;;;16.13;12.38;;;19.20;99.90;;;;;;4978575;28;20180;-84
2023/09/17 00:37:26;;;;;;;17.95;12.75;;;19.20;99.90;;;;;;4977688;28;20184;-86
2023/09/17 00:39:52;;;;;;;13.77;11.48;;;19.20;99.90;;;;;;4978514;28;20568;-86
2023/09/17 00:42:18;;;;;;;17.90;12.80;;;19.20;99.90;;;;;;4978230;28;20211;-86
2023/09/17 00:44:50;;;;;;;16.20;11.75;;;19.20;99.90;;;;;;4977988;28;20211;-86
2023/09/17 00:50:58;;;;;;;13.80;12.15;;;19.10;99.90;;;;;;4996134;28;20223;-86
2023/09/17 00:53:25;;;;;;;15.95;11.98;;;19.10;99.90;;;;;;4978910;28;20188;-86
2023/09/17 00:56:25;;;;;;;14.32;10.90;;;19.10;99.90;;;;;;4978679;28;20199;-87
2023/09/17 00:59:31;;;;;;;16.77;11.52;;;19.00;99.90;;;;;;4979212;28;20553;-87
2023/09/17 01:02:06;;;;;;;14.55;11.07;;;19.00;99.90;;;;;;4976062;28;20716;-86
2023/09/17 01:04:54;;;;;;;14.75;11.30;;;18.90;99.90;;;;;;4995607;28;20207;-86
2023/09/17 01:07:50;;;;;;;13.02;10.48;;;18.90;99.90;;;;;;4947252;28;20180;-88
2023/09/17 01:10:18;;;;;;;15.40;11.82;;;18.90;99.90;;;;;;4978587;28;20677;-88
2023/09/17 01:12:49;;;;;;;14.07;11.57;;;18.90;99.90;;;;;;4995636;28;20176;-87
2023/09/17 01:15:16;;;;;;;16.92;12.00;;;18.80;99.90;;;;;;4962195;28;20200;-86
2023/09/17 01:17:42;;;;;;;16.20;12.40;;;18.80;99.90;;;;;;4978443;28;20639;-87
2023/09/17 01:20:29;;;;;;;13.57;11.90;;;18.90;99.90;;;;;;4978863;28;20211;-87
2023/09/17 01:23:00;;;;;;;14.52;11.55;;;18.80;99.90;;;;;;4977850;28;20274;-87
2023/09/17 01:25:54;;;;;;;16.48;11.68;;;18.80;99.90;;;;;;4978355;28;20201;-87
2023/09/17 01:28:21;;;;;;;14.80;11.68;;;18.90;99.90;;;;;;4978307;28;20156;-88
2023/09/17 01:30:47;;;;;;;16.05;12.25;;;18.90;99.90;;;;;;4978084;28;20585;-88
2023/09/17 01:33:13;;;;;;;19.52;12.27;;;18.90;99.90;;;;;;4978569;28;20187;-87
2023/09/17 01:36:02;;;;;;;18.05;12.57;;;18.80;99.90;;;;;;4996882;28;20702;-87
2023/09/17 01:38:33;;;;;;;16.95;12.93;;;18.80;99.90;;;;;;4982671;28;20180;-87
2023/09/17 01:41:04;;;;;;;14.77;11.25;;;18.80;99.90;;;;;;5001206;28;20203;-87
2023/09/17 01:43:32;;;;;;;14.13;11.82;;;18.80;99.90;;;;;;4982360;28;20238;-87
2023/09/17 01:46:00;;;;;;;15.88;11.88;;;18.80;99.90;;;;;;4981775;28;20284;-87
2023/09/17 01:48:27;;;;;;;19.63;13.05;;;18.80;99.90;;;;;;4981850;28;20172;-86
2023/09/17 01:50:54;;;;;;;13.45;10.68;;;18.80;99.90;;;;;;4982087;28;20671;-86
2023/09/17 01:53:20;;;;;;;15.00;11.07;;;18.80;99.90;;;;;;4981811;28;20181;-86
2023/09/17 01:55:52;;;;;;;14.82;11.30;;;18.80;99.90;;;;;;4981472;28;20212;-87
2023/09/17 01:58:19;;;;;;;15.93;11.20;;;18.80;99.90;;;;;;4981788;28;20177;-88
2023/09/17 02:00:44;;;;;;;13.95;11.05;;;18.80;99.90;;;;;;4999489;28;20192;-88
2023/09/17 02:03:10;;;;;;;12.45;11.07;;;18.80;99.90;;;;;;4982066;28;20198;-87
2023/09/17 02:05:36;;;;;;;13.02;10.32;;;18.80;99.90;;;;;;4982601;28;20200;-87
2023/09/17 02:08:02;;;;;;;13.63;10.48;;;18.80;99.90;;;;;;4982570;28;20676;-85
2023/09/17 02:10:28;;;;;;;12.45;9.82;;;18.90;99.90;;;;;;4982690;28;20196;-86
2023/09/17 02:12:53;;;;;;;12.75;10.50;;;18.80;99.90;;;;;;4983482;28;20613;-86
2023/09/17 02:15:20;;;;;;;11.70;9.45;;;18.90;99.90;;;;;;4987523;28;20185;-86
2023/09/17 02:17:45;;;;;;;11.57;9.20;;;18.80;99.90;;;;;;5005360;28;20203;-88
2023/09/17 02:20:11;;;;;;;14.55;10.43;;;18.90;99.90;;;;;;5005397;28;20208;-87
2023/09/17 02:22:38;;;;;;;10.90;9.40;;;18.90;99.90;;;;;;5005091;28;20185;-86
2023/09/17 02:25:05;;;;;;;11.90;9.63;;;18.90;99.90;;;;;;5005780;28;20617;-85
2023/09/17 02:27:32;;;;;;;11.13;9.43;;;18.90;99.90;;;;;;4999991;28;20199;-85
2023/09/17 02:29:57;;;;;;;14.10;10.23;;;18.90;99.90;;;;;;4982934;28;20205;-85
2023/09/17 02:32:23;;;;;;;19.27;13.20;;;18.80;99.90;;;;;;4982414;28;20590;-85
2023/09/17 02:34:49;;;;;;;16.58;12.90;;;18.60;99.90;;;;;;4981953;28;20191;-85
2023/09/17 02:37:15;;;;;;;15.25;12.90;;;18.50;99.90;;;;;;5000619;28;20179;-85
2023/09/17 02:39:41;;;;;;;15.88;11.88;;;18.50;99.90;;;;;;4983880;28;20224;-86
2023/09/17 02:42:07;;;;;;;14.48;10.88;;;18.50;99.90;;;;;;5003379;28;20177;-85
2023/09/17 02:44:32;;;;;;;18.05;12.57;;;18.50;99.90;;;;;;4989543;28;20284;-85
2023/09/17 02:46:58;;;;;;;13.68;11.63;;;18.50;99.90;;;;;;4981251;28;20181;-85
2023/09/17 02:49:24;;;;;;;15.88;11.27;;;18.60;99.90;;;;;;4981757;28;20683;-85
2023/09/17 02:51:50;;;;;;;15.90;11.60;;;18.60;99.90;;;;;;4998437;28;20172;-85
2023/09/17 02:54:16;;;;;;;14.80;10.50;;;18.70;99.90;;;;;;4980512;28;20184;-85
2023/09/17 02:56:43;;;;;;;14.70;10.15;;;18.70;99.90;;;;;;4980923;28;20184;-86
2023/09/17 02:59:09;;;;;;;13.60;10.45;;;18.70;99.90;;;;;;4980528;28;20173;-86
2023/09/17 03:01:35;;;;;;;13.32;10.82;;;18.80;99.90;;;;;;4980498;28;20180;-86
2023/09/17 03:04:02;;;;;;;13.85;9.73;;;18.80;99.90;;;;;;4980337;28;20267;-86
2023/09/17 03:06:29;;;;;;;13.98;10.27;;;18.80;99.90;;;;;;4980571;28;20259;-86
2023/09/17 03:08:55;;;;;;;14.82;10.63;;;18.80;99.90;;;;;;4980532;28;20203;-86
2023/09/17 03:11:23;;;;;;;13.80;11.65;;;18.80;99.90;;;;;;4980461;28;20741;-86
2023/09/17 03:13:50;;;;;;;13.80;10.88;;;18.70;99.90;;;;;;4980220;28;20533;-86
2023/09/17 03:16:16;;;;;;;16.58;11.25;;;18.70;99.90;;;;;;4979853;28;20192;-86
2023/09/17 03:18:42;;;;;;;13.07;10.80;;;18.70;99.90;;;;;;4980344;28;20716;-87
2023/09/17 03:21:09;;;;;;;14.15;11.10;;;18.70;99.90;;;;;;4979765;28;20262;-86
2023/09/17 03:23:35;;;;;;;15.70;12.40;;;18.70;99.90;;;;;;4980704;28;20187;-86
2023/09/17 03:26:03;;;;;;;14.15;11.48;;;18.70;99.90;;;;;;4980525;28;20211;-86
2023/09/17 03:28:30;;;;;;;17.08;11.98;;;18.70;99.90;;;;;;4980169;28;20246;-86
2023/09/17 03:30:56;;;;;;;18.65;14.85;;;18.70;99.90;;;;;;4980096;28;20726;-86
2023/09/17 03:33:22;;;;;;;16.38;12.82;;;18.60;99.90;;;;;;4980149;28;20182;-86
2023/09/17 03:35:48;;;;;;;17.70;13.57;;;18.60;99.90;;;;;;4979774;28;20557;-87
2023/09/17 03:38:14;;;;;;;17.60;13.70;;;18.50;99.90;;;;;;4979730;28;20180;-87
2023/09/17 03:40:40;;;;;;;20.30;13.73;;;18.40;99.90;;;;;;4979794;28;20571;-87
2023/09/17 03:43:06;;;;;;;15.80;13.20;;;18.40;99.90;;;;;;4979684;28;20644;-87
2023/09/17 03:45:32;;;;;;;15.77;12.35;;;18.40;99.90;;;;;;4987376;28;20660;-87
2023/09/17 03:47:58;;;;;;;16.98;13.73;;;18.40;99.90;;;;;;4979867;28;20717;-87
2023/09/17 03:50:24;;;;;;;15.77;13.93;;;18.50;99.90;;;;;;4996985;28;20215;-87
2023/09/17 03:52:52;;;;;;;16.92;13.95;;;18.50;99.90;;;;;;4996922;28;20176;-87
2023/09/17 03:55:18;;;;;;;21.05;14.70;;;18.50;99.90;;;;;;4979397;28;20720;-87
2023/09/17 03:57:44;;;;;;;21.55;15.85;;;18.40;99.90;;;;;;4979367;28;20267;-87
2023/09/17 04:00:11;;;;;;;21.63;16.42;;;18.50;99.90;;;;;;4979271;28;20203;-86
2023/09/17 04:02:37;;;;;;;20.15;16.42;;;18.50;99.90;;;;;;4979076;28;20379;-86
2023/09/17 04:05:09;;;;;;;20.42;16.80;;;18.50;99.90;;;;;;4979367;28;20240;-86
2023/09/17 04:07:34;;;;;;;19.48;15.90;;;18.50;99.90;;;;;;4979872;28;20184;-87
2023/09/17 04:10:02;;;;;;;19.17;15.32;;;18.50;99.90;;;;;;4978874;28;20197;-86
2023/09/17 04:12:28;;;;;;;17.75;14.98;;;18.50;99.90;;;;;;4979029;28;20184;-86
2023/09/17 04:14:53;;;;;;;17.95;14.43;;;18.50;99.90;;;;;;4979029;28;20279;-87
2023/09/17 04:17:19;;;;;;;16.88;13.05;;;18.40;99.90;;;;;;4979599;28;20180;-87
2023/09/17 04:19:45;;;;;;;17.15;13.60;;;18.40;99.90;;;;;;4979742;28;20675;-88
2023/09/17 04:22:11;;;;;;;15.05;13.40;;;18.40;99.90;;;;;;4996634;28;20172;-88
2023/09/17 04:24:39;;;;;;;16.13;13.57;;;18.50;99.90;;;;;;4978872;28;20331;-86
2023/09/17 04:27:05;;;;;;;14.70;12.70;;;18.40;99.90;;;;;;4978457;28;20177;-86
2023/09/17 04:29:31;;;;;;;15.30;12.50;;;18.50;99.90;;;;;;4978793;28;20242;-86
2023/09/17 04:31:57;;;;;;;18.45;14.32;;;18.50;99.90;;;;;;4978508;28;20180;-86
2023/09/17 04:34:22;;;;;;;15.38;13.57;;;18.50;99.90;;;;;;4978725;28;20234;-86
2023/09/17 04:36:53;;;;;;;16.60;12.95;;;18.50;99.90;;;;;;4978351;28;20180;-86
2023/09/17 04:39:19;;;;;;;18.20;13.88;;;18.50;99.90;;;;;;4978302;28;20288;-86
2023/09/17 04:41:45;;;;;;;21.10;14.07;;;18.50;99.90;;;;;;4978130;28;20655;-86
2023/09/17 04:44:11;;;;;;;20.23;15.65;;;18.50;99.90;;;;;;4978032;28;20674;-86
2023/09/17 04:46:40;;;;;;;17.55;15.13;;;18.50;99.90;;;;;;4979027;28;20267;-88
2023/09/17 04:49:06;;;;;;;16.27;13.70;;;18.50;99.90;;;;;;4979027;28;20533;-88
2023/09/17 04:51:33;;;;;;;20.88;17.08;;;18.50;99.90;;;;;;4978201;28;20633;-86
2023/09/17 04:53:59;;;;;;;23.23;17.95;;;18.50;99.90;;;;;;4977923;28;20639;-86
2023/09/17 04:56:25;;;;;;;24.30;20.05;;;18.50;99.90;;;;;;4978382;28;20195;-85
2023/09/17 04:58:51;;;;;;;30.98;21.55;;;18.50;99.90;;;;;;4978041;28;20188;-86
2023/09/17 05:01:16;;;;;;;27.17;21.75;;;18.50;99.90;;;;;;4978054;28;20200;-86
2023/09/17 05:03:42;;;;;;;26.52;23.00;;;18.50;99.90;;;;;;4977960;28;20208;-86
2023/09/17 05:06:08;;;;;;;30.10;24.02;;;18.50;99.90;;;;;;4978116;28;20200;-85
2023/09/17 05:08:41;;;;;;;31.23;23.65;;;18.50;99.90;;;;;;4978272;28;20176;-86
2023/09/17 05:11:06;;;;;;;26.08;21.35;;;18.50;99.90;;;;;;4977650;28;20228;-87
2023/09/17 05:13:32;;;;;;;29.30;21.48;;;18.50;99.90;;;;;;4978991;28;20176;-87
2023/09/17 05:15:58;;;;;;;25.65;21.73;;;18.50;99.90;;;;;;4978425;28;20223;-87
2023/09/17 05:18:24;;;;;;;34.40;26.80;;;18.50;99.90;;;;;;4978329;28;20243;-88
2023/09/17 05:20:53;;;;;;;29.88;23.45;;;18.40;99.90;;;;;;4978094;28;20204;-88
2023/09/17 05:23:24;;;;;;;32.15;24.98;;;18.50;99.90;;;;;;4977544;28;20271;-89
2023/09/17 05:25:50;;;;;;;31.40;25.27;;;18.50;99.90;;;;;;4975500;28;20212;-88
2023/09/17 05:28:25;;;;;;;31.52;24.85;;;18.40;99.90;;;;;;4978162;28;20180;-88
2023/09/17 05:30:55;;;;;;;33.13;25.55;;;18.50;99.90;;;;;;4978048;28;20705;-89
2023/09/17 05:33:21;;;;;;;33.97;25.23;;;18.50;99.90;;;;;;4993319;28;20301;-88
2023/09/17 05:35:47;;;;;;;34.60;27.23;;;18.50;99.90;;;;;;4977823;28;20192;-88
2023/09/17 05:38:13;;;;;;;31.52;25.15;;;18.40;99.90;;;;;;4998663;28;20682;-87
2023/09/17 05:40:38;;;;;;;29.33;24.95;;;18.50;99.90;;;;;;4977771;28;20204;-89
2023/09/17 05:43:13;;;;;;;30.58;25.25;;;18.50;99.90;;;;;;4983317;28;20180;-90
2023/09/17 05:45:39;;;;;;;27.10;22.58;;;18.50;99.90;;;;;;4997228;28;20223;-89
2023/09/17 05:48:05;;;;;;;28.75;22.55;;;18.50;99.90;;;;;;4983025;28;20168;-89
2023/09/17 05:50:55;;;;;;;34.08;23.23;;;18.50;99.90;;;;;;4979434;28;20197;-89
2023/09/17 05:53:20;;;;;;;31.17;24.15;;;18.50;99.90;;;;;;4981118;28;20173;-89
2023/09/17 05:55:59;;;;;;;32.30;25.23;;;18.50;99.90;;;;;;4980195;28;20605;-89
2023/09/17 05:58:24;;;;;;;25.50;21.55;;;18.50;99.90;;;;;;4978559;28;20188;-87
2023/09/17 06:00:50;;;;;;;29.52;23.38;;;18.50;99.90;;;;;;4992186;28;20211;-88
2023/09/17 06:03:17;;;;;;;27.17;23.33;;;18.60;99.90;;;;;;4978358;28;20189;-88
2023/09/17 06:05:44;;;;;;;28.88;23.73;;;18.60;99.90;;;;;;4978016;28;20232;-88
2023/09/17 06:08:15;;;;;;;32.00;24.27;;;18.60;99.90;;;;;;4981160;28;20651;-88
2023/09/17 06:10:42;;;;;;;32.13;24.80;;;18.60;99.90;;;;;;4978218;28;20201;-88
2023/09/17 06:13:07;;;;;;;30.80;24.20;;;18.60;99.90;;;;;;4979452;28;20652;-89
2023/09/17 06:15:33;;;;;;;32.30;25.50;;;18.70;99.90;;;;;;4977654;28;20208;-88
2023/09/17 06:17:59;;;;;;;28.40;23.67;;;18.70;99.90;;;;;;4980136;28;20660;-88
2023/09/17 06:20:27;;;;;;;30.10;24.52;;;18.70;99.90;;;;;;4979497;28;20212;-86
2023/09/17 06:22:52;;;;;;;30.02;22.45;;;18.70;99.90;;;;;;4980704;28;20204;-86
2023/09/17 06:25:19;;;;;;;29.80;22.90;;;18.80;99.90;;;;;;4981348;28;20679;-85
2023/09/17 06:27:45;;;;;;;28.60;22.75;;;18.80;99.90;;;;;;4978532;28;20192;-85
2023/09/17 06:30:13;;;;;;;25.85;20.75;;;18.90;99.90;;;;;;4996595;28;20682;-87
2023/09/17 06:32:38;;;;;;;25.77;21.17;;;18.90;99.90;;;;;;4982767;28;20176;-88
2023/09/17 06:35:05;;;;;;;24.05;19.60;;;18.90;99.90;;;;;;4983466;28;20180;-88
2023/09/17 06:37:31;;;;;;;24.98;18.13;;;18.90;99.90;;;;;;4981928;28;20191;-88
2023/09/17 06:39:57;;;;;;;19.20;16.08;;;18.90;99.90;;;;;;4982574;28;20285;-88
2023/09/17 06:42:23;;;;;;;22.63;18.20;;;19.00;99.90;;;;;;4983422;28;20192;-87
2023/09/17 06:44:49;;;;;;;22.48;16.95;;;19.00;99.90;;;;;;4982391;28;20205;-88
2023/09/17 06:47:15;;;;;;;18.17;15.60;;;19.10;99.90;;;;;;4982457;28;20179;-88
2023/09/17 06:49:41;;;;;;;18.88;14.75;;;19.10;99.90;;;;;;4981638;28;20212;-88
2023/09/17 06:52:08;;;;;;;17.95;13.80;;;19.20;99.90;;;;;;4981086;28;20177;-88
2023/09/17 06:54:33;;;;;;;17.88;13.70;;;19.20;99.90;;;;;;4981590;28;20180;-88
2023/09/17 06:57:01;;;;;;;17.35;13.30;;;19.30;99.90;;;;;;4981314;28;20188;-88
2023/09/17 06:59:27;;;;;;;18.90;14.85;;;19.30;99.90;;;;;;4981465;28;20291;-88
2023/09/17 07:01:53;;;;;;;17.42;13.63;;;19.40;99.90;;;;;;4981185;28;20207;-88
2023/09/17 07:04:19;;;;;;;14.88;12.57;;;19.50;99.90;;;;;;4981968;28;20182;-88
2023/09/17 07:06:45;;;;;;;17.23;14.68;;;19.50;99.90;;;;;;4981073;28;20184;-88
2023/09/17 07:09:11;;;;;;;16.13;13.18;;;19.60;99.90;;;;;;4981441;28;20272;-88
2023/09/17 07:11:37;;;;;;;16.15;13.13;;;19.60;99.90;;;;;;4981028;28;20618;-88
2023/09/17 07:14:08;;;;;;;13.50;11.25;;;19.70;99.90;;;;;;4980291;28;20263;-88
2023/09/17 07:16:35;;;;;;;13.23;11.52;;;19.80;99.90;;;;;;4979950;28;20288;-88
2023/09/17 07:19:01;;;;;;;15.18;12.00;;;19.90;99.90;;;;;;4979623;28;20205;-88
2023/09/17 07:21:27;;;;;;;15.57;12.93;;;19.90;99.90;;;;;;4979690;28;20212;-87
2023/09/17 07:23:53;;;;;;;16.38;12.77;;;19.90;99.90;;;;;;4980273;28;20601;-88
2023/09/17 07:26:20;;;;;;;17.52;13.00;;;20.00;99.90;;;;;;4980027;28;20690;-87
2023/09/17 07:28:48;;;;;;;13.20;10.98;;;20.20;99.90;;;;;;4980331;28;20180;-87
2023/09/17 07:31:15;;;;;;;12.30;10.68;;;20.30;99.90;;;;;;4992808;28;20192;-87
2023/09/17 07:33:42;;;;;;;11.43;9.95;;;20.40;99.90;;;;;;4980742;28;20184;-88
2023/09/17 07:36:09;;;;;;;13.75;9.77;;;20.50;99.90;;;;;;4980955;28;20194;-88
2023/09/17 07:38:35;;;;;;;13.98;10.90;;;20.60;99.90;;;;;;4979879;28;20722;-88
2023/09/17 07:41:02;;;;;;;12.23;10.18;;;20.70;99.90;;;;;;4979225;28;20234;-87
2023/09/17 07:43:28;;;;;;;11.85;9.45;;;20.90;99.90;;;;;;4979067;28;20239;-87
2023/09/17 07:45:54;;;;;;;11.57;9.20;;;21.10;99.90;;;;;;4979736;28;20208;-87
2023/09/17 07:48:23;;;;;;;11.82;8.60;;;21.20;99.90;;;;;;4964573;28;20239;-87
2023/09/17 07:51:00;;;;;;;11.32;8.23;;;21.30;99.90;;;;;;4979193;28;20284;-87
2023/09/17 07:53:26;;;;;;;9.85;7.35;;;21.40;99.90;;;;;;4979611;28;20226;-88
2023/09/17 07:55:52;;;;;;;9.35;6.85;;;21.40;99.90;;;;;;4979198;28;20188;-88
2023/09/17 07:58:18;;;;;;;10.07;7.25;;;21.40;99.90;;;;;;4979319;28;20188;-88
2023/09/17 08:00:48;;;;;;;10.00;7.32;;;21.40;99.90;;;;;;4979695;28;20278;-88
2023/09/17 08:03:15;;;;;;;7.60;6.70;;;21.60;99.90;;;;;;4997542;28;20177;-88
2023/09/17 08:05:45;;;;;;;12.32;6.90;;;21.70;99.90;;;;;;4980098;28;20204;-88
2023/09/17 08:08:11;;;;;;;7.93;5.93;;;21.80;99.90;;;;;;4980344;28;20701;-88
2023/09/17 08:10:37;;;;;;;9.30;5.60;;;21.80;99.90;;;;;;4978711;28;20670;-88
2023/09/17 08:13:03;;;;;;;7.97;5.93;;;21.90;99.90;;;;;;4978410;28;20179;-88
2023/09/17 08:15:29;;;;;;;6.78;5.25;;;22.10;99.90;;;;;;4978477;28;20299;-88
2023/09/17 08:17:56;;;;;;;7.88;5.18;;;22.30;99.90;;;;;;4978956;28;20191;-88
2023/09/17 08:20:22;;;;;;;6.95;5.18;;;22.50;99.90;;;;;;4978735;28;20204;-88
2023/09/17 08:23:13;;;;;;;6.55;4.85;;;22.70;99.90;;;;;;4978684;28;20188;-89
2023/09/17 08:25:45;;;;;;;6.32;4.82;;;23.10;99.90;;;;;;4980120;28;20690;-89
2023/09/17 08:28:15;;;;;;;7.00;5.28;;;23.40;99.90;;;;;;4979661;28;20176;-87
2023/09/17 08:30:42;;;;;;;5.53;4.95;;;23.60;99.90;;;;;;4979568;28;20627;-88
2023/09/17 08:33:10;;;;;;;5.68;4.75;;;23.70;99.90;;;;;;4980077;28;20181;-88
2023/09/17 08:35:36;;;;;;;5.25;4.70;;;23.60;99.90;;;;;;4979023;28;20180;-88
2023/09/17 08:38:02;;;;;;;7.22;5.60;;;23.70;99.90;;;;;;4985408;28;20675;-85
2023/09/17 08:40:31;;;;;;;6.20;4.60;;;23.60;99.90;;;;;;4980928;28;20204;-85
2023/09/17 08:42:57;;;;;;;8.60;5.53;;;23.70;99.90;;;;;;4979383;28;20219;-84
2023/09/17 08:45:24;;;;;;;6.28;5.28;;;23.70;99.90;;;;;;4978593;28;20258;-84
2023/09/17 08:47:50;;;;;;;8.80;4.93;;;23.90;99.90;;;;;;4979997;28;20259;-84
2023/09/17 08:50:15;;;;;;;8.35;5.05;;;23.90;99.90;;;;;;4996540;28;20243;-84
2023/09/17 08:52:46;;;;;;;6.00;4.95;;;23.90;99.90;;;;;;4978448;28;20226;-84
2023/09/17 08:55:13;;;;;;;5.82;4.95;;;24.00;99.90;;;;;;4978829;28;20177;-84
2023/09/17 08:57:42;;;;;;;5.90;4.53;;;24.10;99.90;;;;;;4978543;28;20562;-84
2023/09/17 09:00:14;;;;;;;10.25;5.03;;;24.10;99.90;;;;;;4979743;28;20215;-84
2023/09/17 09:02:54;;;;;;;7.30;5.00;;;24.00;99.90;;;;;;4979937;28;20267;-85
2023/09/17 09:05:25;;;;;;;7.38;4.40;;;24.20;99.90;;;;;;4979978;28;20200;-84
2023/09/17 09:07:52;;;;;;;5.50;4.07;;;24.20;99.90;;;;;;4979338;28;20191;-84
2023/09/17 09:10:18;;;;;;;6.53;4.60;;;24.40;99.90;;;;;;4978692;28;20206;-85
2023/09/17 09:12:45;;;;;;;5.10;4.10;;;24.40;99.90;;;;;;4978116;28;20279;-85
2023/09/17 09:15:11;;;;;;;7.85;4.40;;;24.50;99.90;;;;;;4978832;28;20698;-85
2023/09/17 09:17:41;;;;;;;6.43;4.22;;;24.40;99.90;;;;;;4995347;28;20184;-85
2023/09/17 09:20:14;;;;;;;4.50;4.00;;;24.40;99.90;;;;;;4977745;28;20196;-85
2023/09/17 09:22:40;;;;;;;6.45;4.30;;;24.40;99.90;;;;;;4995722;28;20555;-85
2023/09/17 09:25:09;;;;;;;5.57;3.88;;;24.50;99.90;;;;;;4978134;28;20204;-84
2023/09/17 09:27:37;;;;;;;5.90;4.50;;;24.60;99.90;;;;;;4978087;28;20605;-85
2023/09/17 09:30:10;;;;;;;8.05;4.32;;;24.50;99.90;;;;;;4978666;28;20203;-85
2023/09/17 09:32:37;;;;;;;6.15;4.20;;;24.50;99.90;;;;;;4978432;28;20180;-84
2023/09/17 09:35:04;;;;;;;6.30;4.60;;;24.40;99.90;;;;;;4978233;28;20203;-85
2023/09/17 09:44:14;;;;;;;5.50;4.03;;;24.40;99.90;;;;;;4998432;28;20188;-88
2023/09/17 09:46:40;;;;;;;4.30;3.72;;;24.30;99.90;;;;;;4995613;28;20165;-89
2023/09/17 09:49:06;;;;;;;5.88;4.35;;;24.30;99.90;;;;;;4978219;28;20549;-89
2023/09/17 09:51:43;;;;;;;5.68;3.88;;;24.30;99.90;;;;;;4978414;28;20177;-90
2023/09/17 09:54:09;;;;;;;6.88;4.18;;;24.30;99.90;;;;;;4978288;28;20184;-90
2023/09/17 09:56:52;;;;;;;5.43;4.15;;;24.30;99.90;;;;;;4978751;28;20182;-89
2023/09/17 09:59:21;;;;;;;6.35;4.50;;;24.40;99.90;;;;;;4982008;28;20180;-89
2023/09/17 10:02:19;;;;;;;5.97;4.60;;;24.40;99.90;;;;;;4985616;28;20195;-89
2023/09/17 10:11:16;;;;;;;8.35;4.03;;;24.70;99.90;;;;;;5023738;23;20227;-78
2023/09/17 10:13:42;;;;;;;4.93;3.90;;;24.60;99.90;;;;;;5018544;28;20172;-77
2023/09/17 10:16:08;;;;;;;6.47;3.80;;;24.70;99.90;;;;;;5018956;28;20178;-79
2023/09/17 10:18:36;;;;;;;5.82;3.83;;;24.80;99.90;;;;;;5017568;28;20746;-79
2023/09/17 10:21:02;;;;;;;4.88;3.95;;;24.70;99.90;;;;;;5001602;28;20172;-79
2023/09/17 10:23:31;;;;;;;5.35;3.45;;;24.60;99.90;;;;;;5018393;28;20230;-79
2023/09/17 10:25:58;;;;;;;5.32;3.70;;;24.50;99.90;;;;;;5019620;28;20261;-79
2023/09/17 10:28:25;;;;;;;4.57;3.90;;;24.60;99.90;;;;;;5019305;28;20274;-78
2023/09/17 10:30:51;;;;;;;7.53;3.88;;;24.50;99.90;;;;;;5001630;28;20230;-79
2023/09/17 10:33:18;;;;;;;5.20;3.60;;;24.40;99.90;;;;;;5018526;28;20683;-79
2023/09/17 10:35:45;;;;;;;5.72;3.70;;;24.40;99.90;;;;;;5002119;28;20195;-79
2023/09/17 10:38:14;;;;;;;5.82;3.55;;;24.40;99.90;;;;;;5019215;28;20184;-80
2023/09/17 10:40:40;;;;;;;4.57;3.65;;;24.50;99.90;;;;;;5001820;28;20214;-79
2023/09/17 10:43:07;;;;;;;4.75;4.03;;;24.60;99.90;;;;;;5019110;28;20549;-79
2023/09/17 10:45:37;;;;;;;5.72;3.75;;;24.80;99.90;;;;;;5001678;28;20598;-79
2023/09/17 10:48:03;;;;;;;7.78;3.90;;;24.80;99.90;;;;;;5001588;28;20636;-79
2023/09/17 10:50:32;;;;;;;5.53;3.78;;;25.00;99.90;;;;;;5019169;28;20231;-79
2023/09/17 10:52:58;;;;;;;5.03;3.58;;;25.00;99.90;;;;;;5001603;28;20266;-79
2023/09/17 10:55:28;;;;;;;5.70;3.20;;;25.10;99.90;;;;;;5001596;28;20199;-79
2023/09/17 10:58:13;;;;;;;5.15;3.38;;;25.10;99.90;;;;;;5001398;28;20175;-79
2023/09/17 11:00:42;;;;;;;5.22;3.42;;;25.30;99.90;;;;;;5001862;28;20175;-79
2023/09/17 11:03:10;;;;;;;3.65;3.35;;;25.40;99.90;;;;;;5001649;28;20180;-79
2023/09/17 11:06:23;;;;;;;;;;;;;;;;;;;;;
2023/09/17 11:08:51;;;;;;;4.75;3.45;;;25.80;99.90;;;;;;5003576;28;20618;-80
2023/09/17 11:11:18;;;;;;;4.45;3.28;;;26.00;99.90;;;;;;5001936;28;20242;-80
2023/09/17 11:13:46;;;;;;;3.10;2.80;;;26.20;99.90;;;;;;5001577;28;20198;-83
2023/09/17 11:16:19;;;;;;;3.15;2.90;;;26.10;99.90;;;;;;5001561;28;20180;-84
2023/09/17 11:19:09;;;;;;;4.47;3.15;;;26.30;99.90;;;;;;5002076;28;20230;-80
2023/09/17 11:21:40;;;;;;;4.20;2.90;;;26.20;99.90;;;;;;5001854;28;20238;-80
2023/09/17 11:24:10;;;;;;;4.53;2.95;;;26.20;99.90;;;;;;5001531;28;20191;-81
2023/09/17 11:26:39;;;;;;;3.58;3.05;;;26.20;99.90;;;;;;5017451;28;20295;-80
2023/09/17 11:29:08;;;;;;;6.28;3.22;;;26.10;99.90;;;;;;5018149;28;20255;-81
2023/09/17 11:31:55;;;;;;;5.75;3.30;;;26.00;99.90;;;;;;5001374;28;20194;-80
2023/09/17 11:34:21;;;;;;;3.75;3.33;;;26.10;99.90;;;;;;5001026;28;20191;-80
2023/09/17 11:36:47;;;;;;;5.07;3.17;;;26.10;99.90;;;;;;5018093;28;20245;-79
2023/09/17 11:39:15;;;;;;;5.00;3.33;;;26.10;99.90;;;;;;5000239;28;20675;-80
2023/09/17 11:41:46;;;;;;;3.72;2.67;;;26.20;99.90;;;;;;5017829;28;20171;-74
2023/09/17 11:44:16;;;;;;;4.88;3.15;;;26.50;99.90;;;;;;4999701;28;20237;-75
2023/09/17 11:46:42;;;;;;;4.10;3.17;;;26.50;99.90;;;;;;4999201;28;20180;-75
2023/09/17 11:49:09;;;;;;;3.90;2.88;;;26.70;99.90;;;;;;5016083;28;20187;-75
2023/09/17 11:51:42;;;;;;;3.42;2.85;;;26.90;99.90;;;;;;4998354;28;20175;-75
2023/09/17 11:54:15;;;;;;;4.72;3.40;;;26.90;99.90;;;;;;4998179;28;20168;-75
2023/09/17 11:56:49;;;;;;;5.03;3.20;;;26.80;99.90;;;;;;5015401;28;20215;-75
2023/09/17 11:59:18;;;;;;;3.05;2.75;;;26.80;99.90;;;;;;5015750;28;20195;-75
2023/09/17 12:01:57;;;;;;;3.80;2.95;;;27.00;99.90;;;;;;4997765;28;20183;-75
2023/09/17 12:04:31;;;;;;;4.22;3.15;;;27.10;99.90;;;;;;4996171;28;20682;-77
2023/09/17 12:06:58;;;;;;;3.75;2.78;;;27.20;99.90;;;;;;4979769;28;20251;-75
2023/09/17 12:10:03;;;;;;;3.40;3.05;;;27.20;99.90;;;;;;4978128;28;20205;-77
2023/09/17 12:12:35;;;;;;;4.38;3.35;;;27.40;99.90;;;;;;4975666;28;20216;-77
2023/09/17 12:15:04;;;;;;;4.78;2.90;;;27.50;99.90;;;;;;4978470;28;20184;-77
2023/09/17 12:17:30;;;;;;;3.38;3.08;;;27.60;99.90;;;;;;4995672;28;20226;-77
2023/09/17 12:20:20;;;;;;;2.63;2.40;;;27.50;99.90;;;;;;4977882;28;20204;-76
2023/09/17 12:23:14;;;;;;;4.47;3.28;;;27.40;99.90;;;;;;4977917;28;20192;-77
2023/09/17 12:25:44;;;;;;;5.10;3.28;;;27.60;99.90;;;;;;4977775;28;20216;-77
2023/09/17 12:28:10;;;;;;;6.07;2.53;;;27.60;99.90;;;;;;4994213;28;20172;-77
2023/09/17 12:30:36;;;;;;;3.97;3.20;;;27.40;99.90;;;;;;4977797;28;20172;-77
2023/09/17 12:33:02;;;;;;;4.70;3.13;;;27.50;99.90;;;;;;4978203;28;20184;-77
2023/09/17 12:35:28;;;;;;;4.22;2.85;;;27.60;99.90;;;;;;4988378;28;20183;-77
2023/09/17 12:37:57;;;;;;;5.28;2.97;;;27.80;99.90;;;;;;5015507;28;20259;-77
2023/09/17 12:40:22;;;;;;;4.63;2.42;;;27.90;99.90;;;;;;5013725;28;20184;-77
2023/09/17 12:42:48;;;;;;;3.25;2.92;;;27.80;99.90;;;;;;5013544;28;20262;-77
2023/09/17 12:45:16;;;;;;;5.75;3.20;;;27.50;99.90;;;;;;5013458;28;20570;-77
2023/09/17 12:47:43;;;;;;;5.10;2.90;;;27.40;99.90;;;;;;5014094;28;20183;-77
2023/09/17 12:50:09;;;;;;;6.28;3.00;;;27.80;99.90;;;;;;4997112;28;20200;-77
2023/09/17 12:52:36;;;;;;;4.13;2.72;;;28.00;99.90;;;;;;5013842;28;20176;-77
2023/09/17 12:55:03;;;;;;;4.47;3.00;;;28.10;99.90;;;;;;4997289;28;20188;-77
2023/09/17 12:57:30;;;;;;;3.35;2.83;;;28.00;99.90;;;;;;5014964;28;20542;-77
2023/09/17 12:59:56;;;;;;;5.57;2.70;;;28.00;99.90;;;;;;4996941;28;20227;-77